Bagotville International Airport

Airport
ICAO code: 
CYBG
IATA Code: 
YBG
Summary
ICAO Region: 
NAM
Territory: 
Location: 
Bagotville, Quebec
Serving: 
Saguenay
Elevation: 
522 ft
Coordinates: 
Aerial View: 
48° 20' 5.856" N, 70° 59' 41.604" W
Airport CFIT: 
Altimeter Temperature Error Correction
Airport GND: 
Aircraft Ground De/Anti Icing
Airport RE: 
Crosswind Landings
Metar
Observation
CYBG 272000Z 27020G29KT 2SM -SN BLSN SCT015 OVC020 M05/M06 A2938 RMK SC3SC5 VIS VRB 1-3 SLP959
Station
Bagotville, Que.
Date/Time
2021-11-27 20:00:00
Wind direction
270°
Wind speed
20 kts
Lowest cloud amount
scattered clouds
Temperature
-5°C
Dew point
-6°C
Humidity
92%
Weather condition
light blowing

Bagotville International Airport, also known as Canadian Forces Base Bagotville or the Saguenay-Bagotville Airport is located near Saguenay, Quebec, Canada

Climatology

Humid Continental climate (Köppen climate classification Dfb) - Variable weather patterns and a large seasonal temperature variance. Summers are often warm and humid with frequent thunderstorms and winters can be very cold with frequent snowfall and persistent snow cover.

Runways

Designator Length Width Surface Rops
18/36 1829 46 ASP Yes/Yes
11/29 3048 46 CON Yes/Yes
Airport map: 
Aerial View: 

SKYbrary Partners:

Safety knowledge contributed by: